createdAt,value
2023-03-04T00:01:26.957Z,5.00
2023-03-04T00:03:53.684Z,5.00
2023-03-04T00:06:20.485Z,5.00
2023-03-04T00:08:47.137Z,5.00
2023-03-04T00:11:13.821Z,5.00
2023-03-04T00:13:40.485Z,4.90
2023-03-04T00:16:07.323Z,4.90
2023-03-04T00:18:34.003Z,5.00
2023-03-04T00:21:00.670Z,5.00
2023-03-04T00:23:28.372Z,5.00
2023-03-04T00:25:55.106Z,5.00
2023-03-04T00:28:21.934Z,5.00
2023-03-04T00:30:48.792Z,5.00
2023-03-04T00:33:15.716Z,5.10
2023-03-04T00:35:42.595Z,5.10
2023-03-04T00:38:09.626Z,5.10
2023-03-04T00:40:36.392Z,5.10
2023-03-04T00:43:04.632Z,5.10
2023-03-04T00:45:31.379Z,5.10
2023-03-04T00:47:58.084Z,5.00
2023-03-04T00:50:24.759Z,5.00
2023-03-04T00:52:51.519Z,5.00
2023-03-04T00:55:18.261Z,5.00
2023-03-04T00:57:45.033Z,5.10
2023-03-04T01:00:14.619Z,5.00
2023-03-04T01:02:41.359Z,5.00
2023-03-04T01:05:09.067Z,5.00
2023-03-04T01:07:35.898Z,5.00
2023-03-04T01:10:02.704Z,5.10
2023-03-04T01:12:29.404Z,5.00
2023-03-04T01:14:56.241Z,5.00
2023-03-04T01:17:23.331Z,5.00
2023-03-04T01:19:49.987Z,5.00
2023-03-04T01:22:18.986Z,5.00
2023-03-04T01:24:47.773Z,5.00
2023-03-04T01:27:14.566Z,5.10
2023-03-04T01:29:41.263Z,5.00
2023-03-04T01:32:07.971Z,5.10
2023-03-04T01:34:34.755Z,5.10
2023-03-04T01:37:01.738Z,5.10
2023-03-04T01:39:28.457Z,5.10
2023-03-04T01:41:55.249Z,5.10
2023-03-04T01:44:22.063Z,5.10
2023-03-04T01:46:52.245Z,5.10
2023-03-04T01:49:20.133Z,5.10
2023-03-04T01:51:50.406Z,5.00
2023-03-04T01:54:17.611Z,5.00
2023-03-04T01:56:46.473Z,5.00
2023-03-04T01:59:23.939Z,5.10
2023-03-04T02:01:56.547Z,5.10
2023-03-04T02:04:29.350Z,5.10
2023-03-04T02:06:57.902Z,5.10
2023-03-04T02:09:24.607Z,5.10
2023-03-04T02:11:52.462Z,5.10
2023-03-04T02:14:20.235Z,5.10
2023-03-04T02:16:48.215Z,5.10
2023-03-04T02:19:35.822Z,5.10
2023-03-04T02:22:02.598Z,5.10
2023-03-04T02:24:45.611Z,5.10
2023-03-04T02:27:12.797Z,5.10
2023-03-04T02:29:40.194Z,5.10
2023-03-04T02:32:12.237Z,5.10
2023-03-04T02:34:46.323Z,5.10
2023-03-04T02:37:13.742Z,5.10
2023-03-04T02:39:43.537Z,5.10
2023-03-04T02:42:12.123Z,5.10
2023-03-04T02:44:41.834Z,5.10
2023-03-04T02:47:11.593Z,5.10
2023-03-04T02:49:40.330Z,5.10
2023-03-04T02:52:19.192Z,5.10
2023-03-04T02:54:46.046Z,5.10
2023-03-04T02:57:14.154Z,5.10
2023-03-04T02:59:43.780Z,5.10
2023-03-04T03:02:15.536Z,5.10
2023-03-04T03:04:42.674Z,5.10
2023-03-04T03:07:12.896Z,5.10
2023-03-04T03:09:39.877Z,5.10
2023-03-04T03:12:06.725Z,5.10
2023-03-04T03:14:33.703Z,5.10
2023-03-04T03:17:01.412Z,5.20
2023-03-04T03:19:28.048Z,5.20
2023-03-04T03:21:54.986Z,5.20
2023-03-04T03:24:21.692Z,5.20
2023-03-04T03:26:49.378Z,5.20
2023-03-04T03:29:16.075Z,5.20
2023-03-04T03:31:42.859Z,5.20
2023-03-04T03:34:09.584Z,5.20
2023-03-04T03:36:36.305Z,5.20
2023-03-04T03:39:03.353Z,5.10
2023-03-04T03:41:30.019Z,5.20
2023-03-04T03:43:56.942Z,5.10
2023-03-04T03:46:23.685Z,5.10
2023-03-04T03:48:50.339Z,5.20
2023-03-04T03:51:17.019Z,5.10
2023-03-04T03:53:43.693Z,5.10
2023-03-04T03:56:10.437Z,5.20
2023-03-04T03:58:37.091Z,5.20
2023-03-04T04:01:03.827Z,5.20
2023-03-04T04:03:30.943Z,5.10
2023-03-04T04:05:57.615Z,5.10
2023-03-04T04:08:24.256Z,5.10
2023-03-04T04:10:51.128Z,5.10
2023-03-04T04:13:18.179Z,5.10
2023-03-04T04:15:45.122Z,5.20
2023-03-04T04:18:11.804Z,5.10
2023-03-04T04:20:38.477Z,5.10
2023-03-04T04:23:05.320Z,5.10
2023-03-04T04:25:32.099Z,5.10
2023-03-04T04:27:59.424Z,5.10
2023-03-04T04:30:26.556Z,5.10
2023-03-04T04:32:53.301Z,5.10
2023-03-04T04:35:20.211Z,5.10
2023-03-04T04:37:46.964Z,5.10
2023-03-04T04:40:13.802Z,5.10
2023-03-04T04:42:40.466Z,5.10
2023-03-04T04:45:07.935Z,5.10
2023-03-04T04:47:34.606Z,5.00
2023-03-04T04:50:01.275Z,5.00
2023-03-04T04:52:27.975Z,5.00
2023-03-04T04:54:54.646Z,5.00
2023-03-04T04:57:21.315Z,5.00
2023-03-04T04:59:48.550Z,5.10
2023-03-04T05:02:15.234Z,5.00
2023-03-04T05:04:41.948Z,5.10
2023-03-04T05:07:08.594Z,5.00
2023-03-04T05:09:35.238Z,5.00
2023-03-04T05:12:01.881Z,5.00
2023-03-04T05:14:28.601Z,5.00
2023-03-04T05:16:55.317Z,5.00
2023-03-04T05:19:21.999Z,4.90
2023-03-04T05:21:48.658Z,4.90
2023-03-04T05:24:15.311Z,4.80
2023-03-04T05:26:41.977Z,4.90
2023-03-04T05:29:08.691Z,4.90
2023-03-04T05:31:35.603Z,4.80
2023-03-04T05:34:02.268Z,4.80
2023-03-04T05:36:28.976Z,4.80
2023-03-04T05:38:55.907Z,4.80
2023-03-04T05:41:22.879Z,4.80
2023-03-04T05:43:50.232Z,4.70
2023-03-04T05:46:19.181Z,4.70
2023-03-04T05:48:46.195Z,4.70
2023-03-04T05:51:12.914Z,4.70
2023-03-04T05:53:41.008Z,4.70
2023-03-04T05:56:15.639Z,4.70
2023-03-04T05:58:43.298Z,4.70
2023-03-04T06:01:10.130Z,4.50
2023-03-04T06:03:37.211Z,4.60
2023-03-04T06:06:04.185Z,4.60
2023-03-04T06:08:31.334Z,4.60
2023-03-04T06:10:59.033Z,4.60
2023-03-04T06:13:26.086Z,4.60
2023-03-04T06:15:57.342Z,4.60
2023-03-04T06:18:25.325Z,4.60
2023-03-04T06:20:57.542Z,4.60
2023-03-04T06:23:24.791Z,4.50
2023-03-04T06:25:53.677Z,4.50
2023-03-04T06:28:20.564Z,4.50
2023-03-04T06:30:47.266Z,4.50
2023-03-04T06:33:13.973Z,4.50
2023-03-04T06:35:40.665Z,4.50
2023-03-04T06:38:07.326Z,4.50
2023-03-04T06:40:34.129Z,4.50
2023-03-04T06:43:00.926Z,4.50
2023-03-04T06:45:27.619Z,4.50
2023-03-04T06:47:54.477Z,4.50
2023-03-04T06:50:21.257Z,4.60
2023-03-04T06:52:49.254Z,4.60
2023-03-04T06:55:16.074Z,4.70
2023-03-04T06:57:42.680Z,4.70
2023-03-04T07:00:09.924Z,4.70
2023-03-04T07:02:36.601Z,4.70
2023-03-04T07:05:03.441Z,4.70
2023-03-04T07:07:30.090Z,4.70
2023-03-04T07:09:56.718Z,4.60
2023-03-04T07:12:23.420Z,4.70
2023-03-04T07:14:50.063Z,4.70
2023-03-04T07:17:16.724Z,4.80
2023-03-04T07:19:43.422Z,4.70
2023-03-04T07:22:10.281Z,4.80
2023-03-04T07:24:36.984Z,4.80
2023-03-04T07:27:03.704Z,4.80
2023-03-04T07:29:30.403Z,4.80
2023-03-04T07:31:57.319Z,4.80
2023-03-04T07:34:24.141Z,4.80
2023-03-04T07:36:50.825Z,4.80
2023-03-04T07:39:17.820Z,4.80
2023-03-04T07:41:44.546Z,5.00
2023-03-04T07:44:13.427Z,4.90
2023-03-04T07:46:40.592Z,5.00
2023-03-04T07:49:07.447Z,5.20
2023-03-04T07:51:35.040Z,5.20
2023-03-04T07:54:01.981Z,5.20
2023-03-04T07:56:32.023Z,5.10
2023-03-04T07:58:59.594Z,4.90
2023-03-04T08:01:30.102Z,4.90
2023-03-04T08:03:57.786Z,4.80
2023-03-04T08:06:26.047Z,4.80
2023-03-04T08:08:58.386Z,4.90
2023-03-04T08:11:25.627Z,4.90
2023-03-04T08:13:54.195Z,5.00
2023-03-04T08:16:23.035Z,5.10
2023-03-04T08:18:52.424Z,5.20
2023-03-04T08:21:20.438Z,5.20
2023-03-04T08:23:48.289Z,5.30
2023-03-04T08:26:19.803Z,5.40
2023-03-04T08:28:47.137Z,5.50
2023-03-04T08:31:14.349Z,5.60
2023-03-04T08:33:41.475Z,5.60
2023-03-04T08:36:08.798Z,5.70
2023-03-04T08:38:35.598Z,5.80
2023-03-04T08:41:03.935Z,5.80
2023-03-04T08:43:31.180Z,5.90
2023-03-04T08:45:57.932Z,6.00
2023-03-04T08:48:25.053Z,6.00
2023-03-04T08:50:52.216Z,6.00
2023-03-04T08:53:20.563Z,6.00
2023-03-04T08:55:48.203Z,5.80
2023-03-04T08:58:15.026Z,5.80
2023-03-04T09:00:44.791Z,5.70
2023-03-04T09:03:15.202Z,5.60
2023-03-04T09:05:41.943Z,5.50
2023-03-04T09:08:08.655Z,5.60
2023-03-04T09:10:35.310Z,5.60
2023-03-04T09:13:01.980Z,5.70
2023-03-04T09:15:28.737Z,5.70
2023-03-04T09:17:55.803Z,5.70
2023-03-04T09:20:23.114Z,5.60
2023-03-04T09:22:50.390Z,5.50
2023-03-04T09:25:17.090Z,5.50
2023-03-04T09:27:43.934Z,5.50
2023-03-04T09:30:11.794Z,5.40
2023-03-04T09:32:38.597Z,5.40
2023-03-04T09:35:05.898Z,5.40
2023-03-04T09:37:32.632Z,5.40
2023-03-04T09:39:59.405Z,5.40
2023-03-04T09:42:33.299Z,5.40
2023-03-04T09:45:00.809Z,5.40
2023-03-04T09:47:28.681Z,5.40
2023-03-04T09:50:00.602Z,5.60
2023-03-04T09:52:54.899Z,5.80
2023-03-04T09:55:35.206Z,5.90
2023-03-04T09:58:40.457Z,6.00
2023-03-04T10:01:34.855Z,6.00
2023-03-04T10:04:07.777Z,6.00
2023-03-04T10:06:34.751Z,6.00
2023-03-04T10:09:11.185Z,5.90
2023-03-04T10:11:43.430Z,5.90
2023-03-04T10:14:22.233Z,5.80
2023-03-04T10:16:55.749Z,5.80
2023-03-04T10:19:31.429Z,5.90
2023-03-04T10:21:58.455Z,6.00
2023-03-04T10:24:29.827Z,6.20
2023-03-04T10:27:04.866Z,6.40
2023-03-04T10:29:33.375Z,6.50
2023-03-04T10:32:00.199Z,6.80
2023-03-04T10:34:27.046Z,7.20
2023-03-04T10:36:59.099Z,7.40
2023-03-04T10:39:30.493Z,7.50
2023-03-04T10:42:15.663Z,7.40
2023-03-04T10:44:53.217Z,7.30
2023-03-04T10:47:20.086Z,7.20
2023-03-04T10:49:53.132Z,7.20
2023-03-04T10:52:34.622Z,7.10
2023-03-04T10:55:06.446Z,7.00
2023-03-04T10:57:41.734Z,6.80
2023-03-04T11:00:17.710Z,6.70
2023-03-04T11:02:48.588Z,6.60
2023-03-04T11:05:15.621Z,6.60
2023-03-04T11:07:55.014Z,6.70
2023-03-04T11:10:31.295Z,6.90
2023-03-04T11:13:34.399Z,7.10
2023-03-04T11:16:04.728Z,7.60
2023-03-04T11:18:43.635Z,7.90
2023-03-04T11:21:23.456Z,8.50
2023-03-04T11:24:03.625Z,8.70
2023-03-04T11:26:39.429Z,8.60
2023-03-04T11:29:24.890Z,8.80
2023-03-04T11:32:09.857Z,8.80
2023-03-04T11:34:47.225Z,8.70
2023-03-04T11:37:21.586Z,8.50
2023-03-04T11:40:03.643Z,8.50
2023-03-04T11:42:47.187Z,8.40
2023-03-04T11:45:28.486Z,8.20
2023-03-04T11:48:19.381Z,8.10
2023-03-04T11:51:28.371Z,8.20
2023-03-04T11:53:55.016Z,8.30
2023-03-04T11:56:35.798Z,8.30
2023-03-04T11:59:21.335Z,8.00
2023-03-04T12:02:04.637Z,7.90
2023-03-04T12:04:37.334Z,7.80
2023-03-04T12:07:22.604Z,7.60
2023-03-04T12:10:13.634Z,7.30
2023-03-04T12:12:59.482Z,6.90
2023-03-04T12:15:50.221Z,6.70
2023-03-04T12:18:26.066Z,6.80
2023-03-04T12:21:13.240Z,6.70
2023-03-04T12:24:01.827Z,6.70
2023-03-04T12:26:55.824Z,6.70
2023-03-04T12:29:42.611Z,6.70
2023-03-04T12:32:33.187Z,6.90
2023-03-04T12:35:22.247Z,7.30
2023-03-04T12:38:08.106Z,8.00
2023-03-04T12:40:59.473Z,8.30
2023-03-04T12:44:01.176Z,8.60
2023-03-04T12:46:51.592Z,8.90
2023-03-04T12:49:29.418Z,9.00
2023-03-04T12:52:09.433Z,8.90
2023-03-04T12:54:52.327Z,8.60
2023-03-04T12:57:23.627Z,8.10
2023-03-04T13:00:06.521Z,7.70
2023-03-04T13:02:50.467Z,7.50
2023-03-04T13:05:36.157Z,7.30
2023-03-04T13:08:20.561Z,7.20
2023-03-04T13:10:47.391Z,7.20
2023-03-04T13:13:38.758Z,7.40
2023-03-04T13:16:19.446Z,7.60
2023-03-04T13:18:46.134Z,7.60
2023-03-04T13:21:18.766Z,7.60
2023-03-04T13:23:45.492Z,7.60
2023-03-04T13:26:31.416Z,7.60
2023-03-04T13:29:13.441Z,7.50
2023-03-04T13:31:59.736Z,7.30
2023-03-04T13:34:43.709Z,7.30
2023-03-04T13:37:31.422Z,7.20
2023-03-04T13:40:24.490Z,7.20
2023-03-04T13:42:51.308Z,7.30
2023-03-04T13:45:37.470Z,7.30
2023-03-04T13:48:23.080Z,7.40
2023-03-04T13:50:51.229Z,7.50
2023-03-04T13:53:42.988Z,7.70
2023-03-04T13:56:18.677Z,7.80
2023-03-04T13:58:46.056Z,7.80
2023-03-04T14:01:31.833Z,7.70
2023-03-04T14:03:59.495Z,7.80
2023-03-04T14:06:31.171Z,7.70
2023-03-04T14:08:58.830Z,7.70
2023-03-04T14:11:25.490Z,7.70
2023-03-04T14:13:52.742Z,7.60
2023-03-04T14:16:21.687Z,7.60
2023-03-04T14:19:14.817Z,7.60
2023-03-04T14:21:46.119Z,7.50
2023-03-04T14:24:16.541Z,7.40
2023-03-04T14:26:43.281Z,7.50
2023-03-04T14:29:24.033Z,7.60
2023-03-04T14:31:51.757Z,7.70
2023-03-04T14:34:29.876Z,7.70
2023-03-04T14:36:56.930Z,7.60
2023-03-04T14:39:29.865Z,7.50
2023-03-04T14:42:03.821Z,7.40
2023-03-04T14:44:38.331Z,7.30
2023-03-04T14:47:27.448Z,7.30
2023-03-04T14:49:54.421Z,7.10
2023-03-04T14:52:38.466Z,6.90
2023-03-04T14:55:14.224Z,6.80
2023-03-04T14:57:43.242Z,6.90
2023-03-04T15:00:17.843Z,7.00
2023-03-04T15:02:44.942Z,6.80
2023-03-04T15:05:17.763Z,6.90
2023-03-04T15:07:51.672Z,6.90
2023-03-04T15:10:23.295Z,6.80
2023-03-04T15:13:00.913Z,6.80
2023-03-04T15:15:44.205Z,6.80
2023-03-04T15:18:17.139Z,6.80
2023-03-04T15:20:53.289Z,6.60
2023-03-04T15:23:20.003Z,6.50
2023-03-04T15:25:46.713Z,6.40
2023-03-04T15:28:18.859Z,6.30
2023-03-04T15:30:45.983Z,6.20
2023-03-04T15:33:13.194Z,6.20
2023-03-04T15:35:41.557Z,6.00
2023-03-04T15:38:12.366Z,5.90
2023-03-04T15:40:44.452Z,5.90
2023-03-04T15:43:16.081Z,5.80
2023-03-04T15:45:44.155Z,5.80
2023-03-04T15:48:13.729Z,5.80
2023-03-04T15:50:48.406Z,5.70
2023-03-04T15:53:42.976Z,5.70
2023-03-04T15:56:14.972Z,5.60
2023-03-04T15:58:43.091Z,5.60
2023-03-04T16:01:16.113Z,5.60
2023-03-04T16:03:43.149Z,5.60
2023-03-04T16:06:14.940Z,5.60
2023-03-04T16:08:42.491Z,5.60
2023-03-04T16:11:18.642Z,5.60
2023-03-04T16:13:45.408Z,5.80
2023-03-04T16:16:13.490Z,5.80
2023-03-04T16:18:41.687Z,5.80
2023-03-04T16:21:12.855Z,5.90
2023-03-04T16:23:42.404Z,5.80
2023-03-04T16:26:14.961Z,5.90
2023-03-04T16:28:42.158Z,5.90
2023-03-04T16:31:11.622Z,5.90
2023-03-04T16:33:38.498Z,5.80
2023-03-04T16:36:15.160Z,5.70
2023-03-04T16:38:43.090Z,5.70
2023-03-04T16:41:15.459Z,5.60
2023-03-04T16:43:42.921Z,5.60
2023-03-04T16:46:13.230Z,5.50
2023-03-04T16:48:40.665Z,5.50
2023-03-04T16:51:19.750Z,5.40
2023-03-04T16:53:56.272Z,5.40
2023-03-04T16:56:23.706Z,5.40
2023-03-04T16:58:50.868Z,5.40
2023-03-04T17:01:26.759Z,5.40
2023-03-04T17:03:54.893Z,5.40
2023-03-04T17:06:22.701Z,5.30
2023-03-04T17:08:49.888Z,5.30
2023-03-04T17:11:19.653Z,5.10
2023-03-04T17:13:46.520Z,5.10
2023-03-04T17:16:13.320Z,5.10
2023-03-04T17:18:41.120Z,5.10
2023-03-04T17:21:12.001Z,5.00
2023-03-04T17:23:38.705Z,5.00
2023-03-04T17:26:05.898Z,5.00
2023-03-04T17:28:32.954Z,5.00
2023-03-04T17:30:59.730Z,5.00
2023-03-04T17:33:26.474Z,5.00
2023-03-04T17:35:53.275Z,5.00
2023-03-04T17:38:19.940Z,5.00
2023-03-04T17:40:46.685Z,4.90
2023-03-04T17:43:13.589Z,5.00
2023-03-04T17:45:42.022Z,5.00
2023-03-04T17:48:14.906Z,4.90
2023-03-04T17:50:49.761Z,4.90
2023-03-04T17:53:16.935Z,5.00
2023-03-04T17:55:59.930Z,4.90
2023-03-04T17:58:28.294Z,5.00
2023-03-04T18:01:04.781Z,5.00
2023-03-04T18:03:31.609Z,4.90
2023-03-04T18:05:58.289Z,4.90
2023-03-04T18:08:25.751Z,4.80
2023-03-04T18:10:52.970Z,4.80
2023-03-04T18:13:20.690Z,4.90
2023-03-04T18:15:47.775Z,4.90
2023-03-04T18:18:14.447Z,4.80
2023-03-04T18:20:41.233Z,4.90
2023-03-04T18:23:07.977Z,4.80
2023-03-04T18:25:34.780Z,4.80
2023-03-04T18:28:01.606Z,4.80
2023-03-04T18:30:28.318Z,4.80
2023-03-04T18:32:57.165Z,4.90
2023-03-04T18:35:23.849Z,4.90
2023-03-04T18:37:50.580Z,4.90
2023-03-04T18:40:17.776Z,4.90
2023-03-04T18:42:45.175Z,4.90
2023-03-04T18:45:15.777Z,4.90
2023-03-04T18:47:46.888Z,4.90
2023-03-04T18:50:14.016Z,4.90
2023-03-04T18:52:40.751Z,4.80
2023-03-04T18:55:08.189Z,4.80
2023-03-04T18:57:34.923Z,4.80
2023-03-04T19:00:04.592Z,4.80
2023-03-04T19:02:31.218Z,4.80
2023-03-04T19:05:02.832Z,4.80
2023-03-04T19:07:29.554Z,4.80
2023-03-04T19:09:57.267Z,4.80
2023-03-04T19:12:24.036Z,4.70
2023-03-04T19:14:50.695Z,4.70
2023-03-04T19:17:17.470Z,4.70
2023-03-04T19:19:44.603Z,4.70
2023-03-04T19:22:11.551Z,4.70
2023-03-04T19:24:38.587Z,4.70
2023-03-04T19:27:05.448Z,4.70
2023-03-04T19:29:32.191Z,4.70
2023-03-04T19:31:58.940Z,4.70
2023-03-04T19:34:25.799Z,4.60
2023-03-04T19:36:52.458Z,4.60
2023-03-04T19:39:19.141Z,4.60
2023-03-04T19:41:45.828Z,4.60
2023-03-04T19:44:12.513Z,4.60
2023-03-04T19:46:39.259Z,4.60
2023-03-04T19:49:06.482Z,4.60
2023-03-04T19:51:33.269Z,4.50
2023-03-04T19:54:00.298Z,4.50
2023-03-04T19:56:27.082Z,4.50
2023-03-04T19:58:55.154Z,4.40
2023-03-04T20:01:36.485Z,4.40
2023-03-04T20:04:08.445Z,4.40
2023-03-04T20:06:40.827Z,4.40
2023-03-04T20:09:07.662Z,4.40
2023-03-04T20:11:39.363Z,4.40
2023-03-04T20:14:13.998Z,4.40
2023-03-04T20:16:40.738Z,4.30
2023-03-04T20:19:07.379Z,4.30
2023-03-04T20:21:35.932Z,4.30
2023-03-04T20:24:02.628Z,4.30
2023-03-04T20:26:31.395Z,4.20
2023-03-04T20:28:59.002Z,4.30
2023-03-04T20:31:31.582Z,4.30
2023-03-04T20:33:59.428Z,4.30
2023-03-04T20:36:28.388Z,4.30
2023-03-04T20:39:01.984Z,4.30
2023-03-04T20:41:30.655Z,4.30
2023-03-04T20:43:57.387Z,4.20
2023-03-04T20:46:27.653Z,4.20
2023-03-04T20:48:58.968Z,4.20
2023-03-04T20:51:26.301Z,4.20
2023-03-04T20:53:55.164Z,4.20
2023-03-04T20:56:22.631Z,4.20
2023-03-04T20:58:50.682Z,4.20
2023-03-04T21:01:17.513Z,4.10
2023-03-04T21:03:45.310Z,4.10
2023-03-04T21:06:15.726Z,4.10
2023-03-04T21:08:43.379Z,4.00
2023-03-04T21:11:13.969Z,4.00
2023-03-04T21:13:42.554Z,4.00
2023-03-04T21:16:14.531Z,4.00
2023-03-04T21:18:42.711Z,3.90
2023-03-04T21:21:20.066Z,3.90
2023-03-04T21:23:46.756Z,3.90
2023-03-04T21:26:13.405Z,4.00
2023-03-04T21:28:41.453Z,3.90
2023-03-04T21:31:24.762Z,3.90
2023-03-04T21:33:54.291Z,3.90
2023-03-04T21:36:21.858Z,3.90
2023-03-04T21:38:48.853Z,3.80
2023-03-04T21:41:17.794Z,3.90
2023-03-04T21:43:45.241Z,3.80
2023-03-04T21:46:14.034Z,3.80
2023-03-04T21:48:43.158Z,3.80
2023-03-04T21:51:13.125Z,3.80
2023-03-04T21:53:39.831Z,3.80
2023-03-04T21:56:06.566Z,3.90
2023-03-04T21:58:35.181Z,3.80
2023-03-04T22:01:12.814Z,3.90
2023-03-04T22:03:40.550Z,3.80
2023-03-04T22:06:08.869Z,3.80
2023-03-04T22:08:35.999Z,3.80
2023-03-04T22:11:04.696Z,3.80
2023-03-04T22:13:31.963Z,3.80
2023-03-04T22:15:58.871Z,3.70
2023-03-04T22:18:26.473Z,3.80
2023-03-04T22:21:04.253Z,3.80
2023-03-04T22:23:31.494Z,3.80
2023-03-04T22:26:05.326Z,3.80
2023-03-04T22:28:32.669Z,3.80
2023-03-04T22:30:59.928Z,3.70
2023-03-04T22:33:26.631Z,3.80
2023-03-04T22:35:54.425Z,3.80
2023-03-04T22:38:23.475Z,3.80
2023-03-04T22:40:50.152Z,3.80
2023-03-04T22:43:16.899Z,3.80
2023-03-04T22:45:43.686Z,3.80
2023-03-04T22:48:10.474Z,3.80
2023-03-04T22:50:37.228Z,3.80
2023-03-04T22:53:06.711Z,3.80
2023-03-04T22:55:33.917Z,3.80
2023-03-04T22:58:01.533Z,3.80
2023-03-04T23:00:30.909Z,3.80
2023-03-04T23:02:57.960Z,3.80
2023-03-04T23:05:25.196Z,3.80
2023-03-04T23:07:52.540Z,3.80
2023-03-04T23:10:23.983Z,3.80
2023-03-04T23:12:51.646Z,3.80
2023-03-04T23:15:20.142Z,3.80
2023-03-04T23:17:46.964Z,3.80
2023-03-04T23:20:17.484Z,3.70
2023-03-04T23:22:45.158Z,3.70
2023-03-04T23:25:12.465Z,3.70
2023-03-04T23:27:39.978Z,3.70
2023-03-04T23:30:12.101Z,3.70
2023-03-04T23:32:38.793Z,3.70
2023-03-04T23:35:05.877Z,3.70
2023-03-04T23:37:32.665Z,3.70
2023-03-04T23:39:59.334Z,3.70
2023-03-04T23:42:26.047Z,3.70
2023-03-04T23:44:52.762Z,3.70
2023-03-04T23:47:19.521Z,3.70
2023-03-04T23:49:46.174Z,3.60
2023-03-04T23:52:12.893Z,3.70
2023-03-04T23:54:39.596Z,3.60
2023-03-04T23:57:06.289Z,3.60
2023-03-04T23:59:33.044Z,3.60
